Time;durP1;ratioP1;P1;durP2;ratioP2;P2;SDS_P1;SDS_P2;PMS_P1;PMS_P2;Temp;Humidity;BMP_temperature;BMP_pressure;BME280_temperature;BME280_humidity;BME280_pressure;Samples;Min_cycle;Max_cycle;Signal;HPM_P1;HPM_P2
2024/04/13 00:01:43;;;;;;;1.33;0.70;;;18.80;78.40;;;;;;5512889;26;20046;-76
2024/04/13 00:04:10;;;;;;;3.28;0.68;;;18.80;78.40;;;;;;5513615;26;20078;-76
2024/04/13 00:06:37;;;;;;;0.68;0.68;;;18.80;78.40;;;;;;5455146;26;21966;-76
2024/04/13 00:09:04;;;;;;;0.40;0.40;;;18.80;78.40;;;;;;5471870;26;19994;-76
2024/04/13 00:11:30;;;;;;;2.05;0.70;;;18.80;78.40;;;;;;5471707;26;20005;-76
2024/04/13 00:13:56;;;;;;;1.92;0.70;;;18.80;78.50;;;;;;5492929;26;19998;-75
2024/04/13 00:16:22;;;;;;;1.65;0.77;;;18.80;78.40;;;;;;5499800;26;20009;-76
2024/04/13 00:18:48;;;;;;;0.50;0.50;;;18.80;78.50;;;;;;5479907;26;20045;-76
2024/04/13 00:21:14;;;;;;;0.63;0.60;;;18.80;78.40;;;;;;5509478;26;20080;-76
2024/04/13 00:23:42;;;;;;;1.75;0.68;;;18.80;78.50;;;;;;5500173;26;20008;-76
2024/04/13 00:26:09;;;;;;;0.70;0.63;;;18.70;78.40;;;;;;5464566;26;19997;-76
2024/04/13 00:28:35;;;;;;;0.68;0.60;;;18.80;78.50;;;;;;5512931;26;19997;-76
2024/04/13 00:31:02;;;;;;;0.70;0.52;;;18.70;78.50;;;;;;5512569;26;20013;-76
2024/04/13 00:33:28;;;;;;;1.17;0.93;;;18.70;78.50;;;;;;5477004;26;20001;-76
2024/04/13 00:35:58;;;;;;;1.13;0.65;;;18.70;78.60;;;;;;5507057;26;19994;-74
2024/04/13 00:38:26;;;;;;;0.70;0.60;;;18.70;78.50;;;;;;5510602;26;20018;-76
2024/04/13 00:40:53;;;;;;;1.00;0.80;;;18.70;78.60;;;;;;5499351;26;20008;-76
2024/04/13 00:43:18;;;;;;;0.77;0.70;;;18.70;78.50;;;;;;5484647;26;20609;-76
2024/04/13 00:45:47;;;;;;;1.20;0.70;;;18.70;78.50;;;;;;5506274;26;20009;-76
2024/04/13 00:48:18;;;;;;;1.58;0.70;;;18.70;78.60;;;;;;5511013;26;20102;-76
2024/04/13 00:50:47;;;;;;;2.33;0.70;;;18.70;78.50;;;;;;5500579;26;20001;-76
2024/04/13 00:53:16;;;;;;;0.57;0.55;;;18.70;78.50;;;;;;5467063;26;20086;-76
2024/04/13 00:55:45;;;;;;;1.05;0.50;;;18.70;78.60;;;;;;5476962;26;20041;-75
2024/04/13 00:58:12;;;;;;;1.17;0.60;;;18.60;78.50;;;;;;5480130;26;20500;-75
2024/04/13 01:00:44;;;;;;;1.50;0.60;;;18.70;78.40;;;;;;5468707;26;20109;-76
2024/04/13 01:03:09;;;;;;;0.70;0.65;;;18.70;78.40;;;;;;5497154;26;20074;-76
2024/04/13 01:05:36;;;;;;;0.77;0.77;;;18.60;78.50;;;;;;5497807;26;20013;-76
2024/04/13 01:08:04;;;;;;;0.80;0.70;;;18.60;78.40;;;;;;5504581;26;20001;-76
2024/04/13 01:10:30;;;;;;;1.30;0.68;;;18.60;78.40;;;;;;5477125;26;20017;-76
2024/04/13 01:12:56;;;;;;;2.45;0.63;;;18.60;78.50;;;;;;5468114;26;20118;-76
2024/04/13 01:15:27;;;;;;;1.65;0.70;;;18.60;78.50;;;;;;5503044;26;20008;-75
2024/04/13 01:17:53;;;;;;;0.95;0.70;;;18.60;78.50;;;;;;5468189;26;20008;-76
2024/04/13 01:20:19;;;;;;;0.85;0.65;;;18.60;78.50;;;;;;5498749;26;20869;-76
2024/04/13 01:22:47;;;;;;;0.87;0.53;;;18.60;78.50;;;;;;5494596;26;20006;-76
2024/04/13 01:25:15;;;;;;;1.75;0.70;;;18.60;78.60;;;;;;5477190;26;20005;-76
2024/04/13 01:27:41;;;;;;;0.68;0.50;;;18.60;78.50;;;;;;5472686;26;20422;-77
2024/04/13 01:30:09;;;;;;;1.38;0.60;;;18.60;78.60;;;;;;5488510;26;20326;-75
2024/04/13 01:32:35;;;;;;;0.88;0.70;;;18.60;78.60;;;;;;5486033;26;19998;-76
2024/04/13 01:35:11;;;;;;;0.50;0.50;;;18.50;78.60;;;;;;5515960;26;20425;-75
2024/04/13 01:37:38;;;;;;;1.15;0.82;;;18.50;78.60;;;;;;5513085;26;20001;-76
2024/04/13 01:40:06;;;;;;;0.52;0.40;;;18.50;78.70;;;;;;5507210;26;20028;-76
2024/04/13 01:42:32;;;;;;;2.60;0.57;;;18.50;78.60;;;;;;5475625;26;20537;-76
2024/04/13 01:44:58;;;;;;;2.20;1.00;;;18.50;78.70;;;;;;5477856;26;20090;-76
2024/04/13 01:47:24;;;;;;;1.10;0.63;;;18.50;78.70;;;;;;5480040;26;20001;-76
2024/04/13 01:49:50;;;;;;;1.03;0.50;;;18.50;78.70;;;;;;5513978;26;20439;-76
2024/04/13 01:52:16;;;;;;;1.13;0.60;;;18.50;78.70;;;;;;5475357;26;20057;-75
2024/04/13 01:54:42;;;;;;;1.48;0.80;;;18.50;78.70;;;;;;5510582;26;20029;-76
2024/04/13 01:57:07;;;;;;;0.50;0.50;;;18.50;78.70;;;;;;5478031;26;20062;-75
2024/04/13 01:59:33;;;;;;;1.90;0.70;;;18.50;78.70;;;;;;5510428;26;20077;-76
2024/04/13 02:01:59;;;;;;;0.90;0.60;;;18.40;78.70;;;;;;5507919;26;20042;-76
2024/04/13 02:04:25;;;;;;;0.60;0.60;;;18.50;78.70;;;;;;5478184;26;20037;-76
2024/04/13 02:06:51;;;;;;;0.70;0.60;;;18.40;78.70;;;;;;5511070;26;20001;-76
2024/04/13 02:09:18;;;;;;;1.70;0.73;;;18.40;78.70;;;;;;5500537;26;20836;-76
2024/04/13 02:11:45;;;;;;;1.48;0.93;;;18.40;78.70;;;;;;5501658;26;19993;-75
2024/04/13 02:14:11;;;;;;;;;;;18.40;78.80;;;;;;5500188;26;20316;-76
2024/04/13 02:16:37;;;;;;;0.77;0.63;;;18.40;78.80;;;;;;5467248;26;20749;-76
2024/04/13 02:19:04;;;;;;;0.73;0.43;;;18.40;78.80;;;;;;5452901;26;20728;-75
2024/04/13 02:21:30;;;;;;;0.52;0.52;;;18.40;78.80;;;;;;5492490;26;19994;-75
2024/04/13 02:23:56;;;;;;;1.30;0.63;;;18.40;78.90;;;;;;5454484;26;20020;-76
2024/04/13 02:26:22;;;;;;;0.63;0.63;;;18.40;78.90;;;;;;5502773;26;20008;-75
2024/04/13 02:28:48;;;;;;;0.40;0.40;;;18.40;78.80;;;;;;5475165;26;20226;-77
2024/04/13 02:31:14;;;;;;;1.10;0.70;;;18.40;78.90;;;;;;5504456;26;20750;-76
2024/04/13 02:33:39;;;;;;;1.00;0.50;;;18.40;78.90;;;;;;5513580;26;20368;-76
2024/04/13 02:36:06;;;;;;;0.60;0.60;;;18.30;78.90;;;;;;5473857;26;20443;-76
2024/04/13 02:38:32;;;;;;;0.75;0.70;;;18.30;78.90;;;;;;5478898;26;20078;-76
2024/04/13 02:41:01;;;;;;;2.05;0.60;;;18.30;78.90;;;;;;5491505;26;20053;-75
2024/04/13 02:43:31;;;;;;;0.60;0.57;;;18.30;78.90;;;;;;5473546;26;19997;-76
2024/04/13 02:46:08;;;;;;;2.92;0.70;;;18.30;78.90;;;;;;5467338;26;19993;-76
2024/04/13 02:48:43;;;;;;;0.60;0.60;;;18.30;79.00;;;;;;5474329;26;19994;-76
2024/04/13 02:51:10;;;;;;;4.13;0.80;;;18.30;79.00;;;;;;5494896;26;20515;-76
2024/04/13 02:53:37;;;;;;;1.27;0.60;;;18.30;79.00;;;;;;5478378;26;20105;-76
2024/04/13 02:56:04;;;;;;;0.95;0.60;;;18.30;79.00;;;;;;5511453;26;20008;-76
2024/04/13 02:58:29;;;;;;;;;;;18.30;79.00;;;;;;5514184;26;19997;-76
2024/04/13 03:01:00;;;;;;;0.55;0.55;;;18.30;79.00;;;;;;5476255;26;20249;-76
2024/04/13 03:03:26;;;;;;;1.60;0.60;;;18.30;79.00;;;;;;5506828;26;20004;-76
2024/04/13 03:06:04;;;;;;;0.70;0.70;;;18.30;79.00;;;;;;5480663;26;19997;-76
2024/04/13 03:08:33;;;;;;;1.02;0.70;;;18.20;79.00;;;;;;5482781;26;20479;-76
2024/04/13 03:11:00;;;;;;;0.98;0.70;;;18.20;79.00;;;;;;5455010;26;20390;-76
2024/04/13 03:13:26;;;;;;;2.65;0.60;;;18.30;79.00;;;;;;5513565;26;20054;-78
2024/04/13 03:16:06;;;;;;;1.75;0.68;;;18.20;79.10;;;;;;5511678;26;20022;-76
2024/04/13 03:18:34;;;;;;;0.50;0.50;;;18.20;79.10;;;;;;5495711;26;20009;-75
2024/04/13 03:21:00;;;;;;;1.40;0.60;;;18.20;79.00;;;;;;5523291;26;20009;-76
2024/04/13 03:23:29;;;;;;;0.57;0.57;;;18.20;79.10;;;;;;5517481;26;19997;-76
2024/04/13 03:25:55;;;;;;;1.05;0.50;;;18.20;79.00;;;;;;5480353;26;20659;-76
2024/04/13 03:28:25;;;;;;;0.57;0.57;;;18.20;79.10;;;;;;5513500;26;19998;-75
2024/04/13 03:30:51;;;;;;;1.30;0.75;;;18.20;79.20;;;;;;5512703;26;19997;-76
2024/04/13 03:33:17;;;;;;;1.80;0.60;;;18.20;79.10;;;;;;5511816;26;20781;-75
2024/04/13 03:35:44;;;;;;;0.68;0.63;;;18.20;79.20;;;;;;5493195;26;19993;-75
2024/04/13 03:38:10;;;;;;;;;;;18.20;79.20;;;;;;5514880;26;20470;-76
2024/04/13 03:40:36;;;;;;;0.73;0.60;;;18.20;79.20;;;;;;5504972;26;19924;-76
2024/04/13 03:43:03;;;;;;;0.68;0.63;;;18.10;79.20;;;;;;5510313;26;20009;-76
2024/04/13 03:45:29;;;;;;;1.38;0.68;;;18.10;79.20;;;;;;5509920;26;20001;-76
2024/04/13 03:47:58;;;;;;;0.60;0.60;;;18.10;79.20;;;;;;5512497;26;20364;-75
2024/04/13 03:50:24;;;;;;;1.52;0.50;;;18.10;79.20;;;;;;5480217;26;20069;-76
2024/04/13 03:52:49;;;;;;;0.50;0.50;;;18.10;79.20;;;;;;5480385;26;20005;-76
2024/04/13 03:55:15;;;;;;;0.77;0.50;;;18.10;79.20;;;;;;5510194;26;20726;-75
2024/04/13 03:57:41;;;;;;;2.07;0.50;;;18.10;79.20;;;;;;5509809;26;20033;-75
2024/04/13 04:00:10;;;;;;;1.00;0.60;;;18.10;79.20;;;;;;5466305;26;21070;-76
2024/04/13 04:02:36;;;;;;;1.85;0.60;;;18.10;79.20;;;;;;5469891;26;20002;-76
2024/04/13 04:05:03;;;;;;;1.80;0.70;;;18.10;79.30;;;;;;5504958;26;20025;-75
2024/04/13 04:07:29;;;;;;;1.52;0.70;;;18.00;79.30;;;;;;5515704;26;20473;-75
2024/04/13 04:09:55;;;;;;;0.80;0.50;;;18.00;79.30;;;;;;5472399;26;20005;-76
2024/04/13 04:12:20;;;;;;;0.50;0.50;;;18.00;79.30;;;;;;5499254;26;20504;-76
2024/04/13 04:14:46;;;;;;;0.60;0.60;;;18.00;79.30;;;;;;5513757;26;21025;-76
2024/04/13 04:17:12;;;;;;;1.03;0.63;;;18.00;79.20;;;;;;5508807;26;19998;-77
2024/04/13 04:19:38;;;;;;;2.37;0.87;;;18.00;79.30;;;;;;5500556;26;20211;-76
2024/04/13 04:22:04;;;;;;;0.70;0.50;;;18.00;79.30;;;;;;5511277;26;20001;-76
2024/04/13 04:24:30;;;;;;;0.60;0.50;;;18.00;79.20;;;;;;5504772;26;20008;-76
2024/04/13 04:26:55;;;;;;;1.93;0.60;;;18.00;79.30;;;;;;5512107;26;20002;-76
2024/04/13 04:29:21;;;;;;;0.80;0.67;;;18.00;79.30;;;;;;5480017;26;20011;-76
2024/04/13 04:31:47;;;;;;;1.10;0.60;;;18.00;79.30;;;;;;5507955;26;20044;-76
2024/04/13 04:34:13;;;;;;;1.13;0.80;;;18.00;79.30;;;;;;5493184;26;20005;-76
2024/04/13 04:36:39;;;;;;;0.60;0.57;;;18.00;79.40;;;;;;5505095;26;20449;-76
2024/04/13 04:39:05;;;;;;;0.65;0.50;;;18.00;79.40;;;;;;5503282;26;20211;-76
2024/04/13 04:41:31;;;;;;;0.82;0.52;;;18.00;79.30;;;;;;5468249;26;20069;-77
2024/04/13 04:43:57;;;;;;;1.27;0.60;;;18.00;79.40;;;;;;5503501;26;20010;-76
2024/04/13 04:46:23;;;;;;;0.57;0.50;;;18.00;79.30;;;;;;5472438;26;20008;-76
2024/04/13 04:48:50;;;;;;;0.60;0.60;;;18.00;79.40;;;;;;5500513;26;19998;-76
2024/04/13 04:51:17;;;;;;;1.20;0.82;;;17.90;79.40;;;;;;5503563;26;20028;-76
2024/04/13 04:53:43;;;;;;;1.08;0.60;;;17.90;79.40;;;;;;5480177;26;20716;-75
2024/04/13 04:56:09;;;;;;;0.63;0.60;;;17.90;79.40;;;;;;5481271;26;20006;-76
2024/04/13 04:58:36;;;;;;;1.33;0.50;;;17.90;79.40;;;;;;5514568;26;20001;-76
2024/04/13 05:01:06;;;;;;;1.15;0.63;;;17.90;79.30;;;;;;5479924;26;20069;-76
2024/04/13 05:03:32;;;;;;;1.05;0.60;;;17.90;79.40;;;;;;5512119;26;20458;-76
2024/04/13 05:05:58;;;;;;;1.67;0.60;;;17.90;79.40;;;;;;5496668;26;20008;-75
2024/04/13 05:08:24;;;;;;;0.50;0.50;;;17.90;79.40;;;;;;5511741;26;20484;-76
2024/04/13 05:10:50;;;;;;;0.60;0.60;;;17.90;79.40;;;;;;5477387;26;20360;-76
2024/04/13 05:13:17;;;;;;;1.27;0.60;;;17.90;79.30;;;;;;5482043;26;19997;-76
2024/04/13 05:15:43;;;;;;;1.42;0.80;;;17.90;79.40;;;;;;5506671;26;20074;-76
2024/04/13 05:18:10;;;;;;;1.52;0.80;;;17.90;79.30;;;;;;5466142;26;20347;-76
2024/04/13 05:20:37;;;;;;;0.75;0.50;;;17.90;79.40;;;;;;5519784;26;19993;-77
2024/04/13 05:23:05;;;;;;;3.15;0.65;;;17.90;79.40;;;;;;5518902;26;20121;-75
2024/04/13 05:25:31;;;;;;;1.00;0.73;;;17.90;79.30;;;;;;5478652;26;20379;-76
2024/04/13 05:27:57;;;;;;;0.75;0.65;;;17.90;79.30;;;;;;5498156;26;20005;-76
2024/04/13 05:30:24;;;;;;;0.82;0.60;;;17.90;79.40;;;;;;5512239;26;20442;-75
2024/04/13 05:32:50;;;;;;;1.05;0.60;;;17.90;79.30;;;;;;5482999;26;20009;-76
2024/04/13 05:35:18;;;;;;;0.63;0.60;;;17.90;79.20;;;;;;5491144;25;20020;-76
2024/04/13 05:37:44;;;;;;;0.50;0.50;;;18.00;79.10;;;;;;5485117;26;20503;-76
2024/04/13 05:40:13;;;;;;;1.48;0.80;;;17.90;79.10;;;;;;5506871;25;20005;-75
2024/04/13 05:42:39;;;;;;;0.98;0.60;;;18.00;79.00;;;;;;5522243;26;20077;-76
2024/04/13 05:45:05;;;;;;;0.73;0.70;;;18.00;79.00;;;;;;5508127;26;20009;-76
2024/04/13 05:47:32;;;;;;;1.80;0.68;;;18.00;78.90;;;;;;5500606;26;20023;-76
2024/04/13 05:49:59;;;;;;;1.67;0.68;;;18.00;78.80;;;;;;5474944;26;20091;-76
2024/04/13 05:52:25;;;;;;;0.73;0.60;;;18.00;78.70;;;;;;5478782;26;20012;-77
2024/04/13 05:54:52;;;;;;;0.95;0.65;;;18.10;78.60;;;;;;5503447;26;20014;-76
2024/04/13 05:57:17;;;;;;;;;;;18.10;78.50;;;;;;5470872;26;20012;-76
2024/04/13 05:59:43;;;;;;;0.60;0.55;;;18.10;78.50;;;;;;5500905;26;19923;-76
2024/04/13 06:02:09;;;;;;;1.03;0.70;;;18.10;78.30;;;;;;5507887;26;20002;-76
2024/04/13 06:04:35;;;;;;;0.82;0.80;;;18.20;78.30;;;;;;5501850;26;20002;-76
2024/04/13 06:07:02;;;;;;;1.02;0.63;;;18.20;78.10;;;;;;5510164;26;20008;-76
2024/04/13 06:09:28;;;;;;;;;;;18.30;78.00;;;;;;5510837;26;19998;-76
2024/04/13 06:11:54;;;;;;;1.02;0.80;;;18.20;77.90;;;;;;5508536;26;19931;-76
2024/04/13 06:14:20;;;;;;;1.10;0.77;;;18.30;77.80;;;;;;5452868;26;20005;-76
2024/04/13 06:16:46;;;;;;;2.77;0.60;;;18.20;77.80;;;;;;5484064;26;20271;-76
2024/04/13 06:19:13;;;;;;;1.00;0.80;;;18.30;77.90;;;;;;5513717;26;20499;-76
2024/04/13 06:21:39;;;;;;;;;;;18.30;77.80;;;;;;5484833;26;20074;-77
2024/04/13 06:24:06;;;;;;;1.75;0.85;;;18.30;77.60;;;;;;5486867;26;19923;-76
2024/04/13 06:26:32;;;;;;;0.60;0.60;;;18.30;77.70;;;;;;5471824;26;20001;-76
2024/04/13 06:28:58;;;;;;;1.73;0.80;;;18.30;77.50;;;;;;5510635;26;19997;-76
2024/04/13 06:31:24;;;;;;;15.00;1.20;;;18.40;77.30;;;;;;5456607;26;19994;-76
2024/04/13 06:33:50;;;;;;;2.15;0.82;;;18.40;77.00;;;;;;5513940;26;20008;-77
2024/04/13 06:36:17;;;;;;;1.53;0.90;;;18.50;76.80;;;;;;5475176;26;20013;-76
2024/04/13 06:38:43;;;;;;;0.80;0.73;;;18.50;76.70;;;;;;5470570;26;20259;-76
2024/04/13 06:41:09;;;;;;;1.30;0.80;;;18.60;76.70;;;;;;5495395;26;19998;-77
2024/04/13 06:43:34;;;;;;;2.10;0.70;;;18.50;76.60;;;;;;5460508;26;20088;-76
2024/04/13 06:46:00;;;;;;;3.63;1.10;;;18.50;76.70;;;;;;5500137;26;20001;-76
2024/04/13 06:48:26;;;;;;;3.80;1.23;;;18.60;76.50;;;;;;5481580;26;20591;-76
2024/04/13 06:50:52;;;;;;;3.17;1.10;;;18.60;76.30;;;;;;5497643;26;20005;-77
2024/04/13 06:53:19;;;;;;;2.83;1.00;;;18.60;76.20;;;;;;5480929;26;20004;-76
2024/04/13 06:55:45;;;;;;;4.40;1.00;;;18.70;76.10;;;;;;5513949;26;20031;-77
2024/04/13 06:58:11;;;;;;;9.13;2.40;;;18.80;75.90;;;;;;5504898;26;20358;-77
2024/04/13 07:00:37;;;;;;;6.82;2.25;;;18.90;75.60;;;;;;5514252;26;20075;-77
2024/04/13 07:03:03;;;;;;;11.47;2.73;;;19.00;75.40;;;;;;5482011;26;20010;-77
2024/04/13 07:05:29;;;;;;;4.93;2.50;;;19.10;74.70;;;;;;5513785;26;19993;-76
2024/04/13 07:07:55;;;;;;;6.75;2.58;;;19.30;73.90;;;;;;5522585;26;20005;-76
2024/04/13 07:10:21;;;;;;;6.97;2.30;;;19.30;73.70;;;;;;5521676;26;20443;-77
2024/04/13 07:12:47;;;;;;;5.15;1.90;;;19.30;73.70;;;;;;5486071;26;19989;-76
2024/04/13 07:15:13;;;;;;;6.73;2.37;;;19.50;73.30;;;;;;5509099;26;20090;-77
2024/04/13 07:17:39;;;;;;;5.80;2.17;;;19.50;73.50;;;;;;5481052;26;20002;-77
2024/04/13 07:20:07;;;;;;;7.03;3.17;;;19.40;73.70;;;;;;5512813;26;19997;-76
2024/04/13 07:22:33;;;;;;;4.57;2.10;;;19.40;73.70;;;;;;5510748;26;20005;-75
2024/04/13 07:24:59;;;;;;;;;;;19.50;73.60;;;;;;5511749;26;20016;-76
2024/04/13 07:27:25;;;;;;;5.72;2.15;;;19.50;73.50;;;;;;5512496;26;19923;-76
2024/04/13 07:29:51;;;;;;;6.32;1.88;;;19.50;73.40;;;;;;5479817;26;19997;-76
2024/04/13 07:32:17;;;;;;;4.83;2.70;;;19.60;73.50;;;;;;5513223;26;19997;-77
2024/04/13 07:34:43;;;;;;;5.03;2.30;;;19.60;73.40;;;;;;5513315;26;20270;-75
2024/04/13 07:37:10;;;;;;;11.77;2.13;;;19.80;73.00;;;;;;5481611;26;21088;-76
2024/04/13 07:39:36;;;;;;;8.30;1.90;;;20.10;71.80;;;;;;5485186;26;20226;-76
2024/04/13 07:42:02;;;;;;;3.53;1.70;;;20.40;70.80;;;;;;5480003;26;20012;-75
2024/04/13 07:44:28;;;;;;;5.00;1.77;;;20.40;70.60;;;;;;5512432;26;20001;-75
2024/04/13 07:46:54;;;;;;;6.25;2.13;;;20.70;69.80;;;;;;5479559;26;20008;-75
2024/04/13 07:49:23;;;;;;;5.78;2.20;;;20.90;69.00;;;;;;5509980;26;20475;-76
2024/04/13 07:51:49;;;;;;;7.60;2.85;;;21.20;68.00;;;;;;5504535;26;20062;-75
2024/04/13 07:54:15;;;;;;;5.22;1.98;;;21.30;67.40;;;;;;5462305;26;20009;-76
2024/04/13 07:56:41;;;;;;;5.53;1.47;;;21.30;67.40;;;;;;5513146;26;20029;-75
2024/04/13 07:59:07;;;;;;;2.85;1.88;;;21.40;67.20;;;;;;5512519;26;19993;-75
2024/04/13 08:01:33;;;;;;;5.15;1.80;;;21.60;66.70;;;;;;5477433;26;19998;-75
2024/04/13 08:04:00;;;;;;;4.63;2.22;;;21.60;66.50;;;;;;5516744;26;20001;-75
2024/04/13 08:06:26;;;;;;;4.68;1.98;;;21.50;66.80;;;;;;5513066;26;20001;-75
2024/04/13 08:08:52;;;;;;;4.10;1.85;;;21.00;68.00;;;;;;5513164;26;20016;-76
2024/04/13 08:11:18;;;;;;;3.75;1.75;;;20.90;68.80;;;;;;5482578;26;20001;-75
2024/04/13 08:13:44;;;;;;;7.28;2.45;;;20.90;69.00;;;;;;5510607;26;20085;-75
2024/04/13 08:16:10;;;;;;;9.02;2.00;;;20.80;69.30;;;;;;5482222;26;20029;-76
2024/04/13 08:18:36;;;;;;;3.17;1.70;;;20.80;69.30;;;;;;5489513;26;20446;-76
2024/04/13 08:21:02;;;;;;;3.90;1.88;;;21.10;68.60;;;;;;5524273;26;19998;-75
2024/04/13 08:23:28;;;;;;;4.07;1.70;;;20.90;68.70;;;;;;5519818;26;19997;-76
2024/04/13 08:26:05;;;;;;;2.95;1.85;;;20.90;69.20;;;;;;5509318;26;20034;-76
2024/04/13 08:28:31;;;;;;;7.20;1.83;;;20.90;69.10;;;;;;5503475;26;20005;-76
2024/04/13 08:30:57;;;;;;;4.45;1.75;;;21.20;68.40;;;;;;5477435;26;20032;-76
2024/04/13 08:33:22;;;;;;;6.18;1.92;;;21.20;68.20;;;;;;5479157;26;20349;-75
2024/04/13 08:36:04;;;;;;;3.70;1.97;;;21.30;68.10;;;;;;5496845;26;20009;-75
2024/04/13 08:38:31;;;;;;;4.88;1.50;;;21.50;67.40;;;;;;5475773;26;20223;-75
2024/04/13 08:40:59;;;;;;;;;;;21.40;67.50;;;;;;5485228;26;20537;-76
2024/04/13 08:43:25;;;;;;;4.82;1.95;;;21.50;67.20;;;;;;5485676;26;19978;-77
2024/04/13 08:45:52;;;;;;;3.30;1.88;;;21.60;67.10;;;;;;5477361;26;20013;-76
2024/04/13 08:48:18;;;;;;;;;;;21.30;67.90;;;;;;5499359;25;20002;-76
2024/04/13 08:50:45;;;;;;;4.35;1.58;;;21.40;67.90;;;;;;5496114;25;20020;-76
2024/04/13 08:53:12;;;;;;;2.33;1.95;;;21.50;67.40;;;;;;5475735;26;20350;-75
2024/04/13 08:55:39;;;;;;;1.67;1.27;;;21.40;67.70;;;;;;5495577;26;20050;-75
2024/04/13 08:58:05;;;;;;;2.53;1.40;;;21.40;67.70;;;;;;5495449;25;20024;-76
2024/04/13 09:00:35;;;;;;;2.30;1.55;;;21.30;68.10;;;;;;5479945;26;20347;-75
2024/04/13 09:03:02;;;;;;;2.50;1.35;;;21.50;67.60;;;;;;5494113;26;20015;-76
2024/04/13 09:05:28;;;;;;;4.05;1.80;;;21.70;66.90;;;;;;5475058;26;20038;-76
2024/04/13 09:07:56;;;;;;;3.00;1.70;;;22.30;65.10;;;;;;5493748;26;20020;-76
2024/04/13 09:10:22;;;;;;;3.63;1.80;;;22.40;64.80;;;;;;5495116;25;20061;-75
2024/04/13 09:12:48;;;;;;;2.38;1.52;;;22.00;65.70;;;;;;5482261;26;20035;-76
2024/04/13 09:15:14;;;;;;;2.28;1.67;;;21.80;66.40;;;;;;5493847;25;20021;-75
2024/04/13 09:17:40;;;;;;;2.47;1.30;;;22.00;66.00;;;;;;5507196;26;20013;-76
2024/04/13 09:20:08;;;;;;;3.77;1.60;;;22.10;65.80;;;;;;5522757;26;20021;-76
2024/04/13 09:22:39;;;;;;;4.38;1.40;;;21.90;66.40;;;;;;5489728;26;20226;-76
2024/04/13 09:25:07;;;;;;;3.20;1.60;;;22.00;66.10;;;;;;5478814;26;19998;-75
2024/04/13 09:27:34;;;;;;;2.50;1.30;;;22.00;66.30;;;;;;5489614;26;19997;-76
2024/04/13 09:30:10;;;;;;;3.00;1.70;;;22.10;66.00;;;;;;5479043;26;19997;-76
2024/04/13 09:32:36;;;;;;;2.25;1.33;;;21.90;66.40;;;;;;5513761;26;20469;-76
2024/04/13 09:35:10;;;;;;;2.08;1.10;;;21.70;67.10;;;;;;5479670;26;20713;-76
2024/04/13 09:37:36;;;;;;;3.63;1.70;;;22.00;66.60;;;;;;5510956;26;19994;-75
2024/04/13 09:40:06;;;;;;;3.17;1.50;;;21.80;67.00;;;;;;5471677;26;20065;-74
2024/04/13 09:42:33;;;;;;;2.50;1.58;;;21.70;67.50;;;;;;5480148;26;20020;-74
2024/04/13 09:45:06;;;;;;;5.93;1.27;;;21.60;67.70;;;;;;5478299;26;20001;-75
2024/04/13 09:47:32;;;;;;;5.07;1.30;;;21.60;67.80;;;;;;5478175;26;20005;-75
2024/04/13 09:49:58;;;;;;;6.10;1.30;;;21.60;68.00;;;;;;5511902;26;20001;-76
2024/04/13 09:52:26;;;;;;;4.80;1.48;;;21.70;67.90;;;;;;5511083;26;20009;-76
2024/04/13 09:54:54;;;;;;;2.90;1.35;;;21.60;67.80;;;;;;5511718;26;20037;-76
2024/04/13 09:57:20;;;;;;;2.83;1.00;;;21.70;67.80;;;;;;5512643;26;20017;-76
2024/04/13 09:59:50;;;;;;;2.47;1.60;;;22.10;66.90;;;;;;5512931;26;20004;-75
2024/04/13 10:02:17;;;;;;;6.80;1.50;;;22.10;66.80;;;;;;5479176;26;19993;-75
2024/04/13 10:04:43;;;;;;;7.97;1.73;;;22.20;66.80;;;;;;5481105;26;20008;-75
2024/04/13 10:07:10;;;;;;;4.60;1.65;;;22.10;67.00;;;;;;5482052;26;19993;-76
2024/04/13 10:09:39;;;;;;;5.05;1.52;;;22.00;67.80;;;;;;5482060;26;20104;-76
2024/04/13 10:12:12;;;;;;;2.33;1.60;;;22.00;67.90;;;;;;5481555;26;19993;-76
2024/04/13 10:14:41;;;;;;;6.68;1.90;;;21.90;68.20;;;;;;5487105;26;20006;-76
2024/04/13 10:17:09;;;;;;;2.35;1.55;;;21.90;68.40;;;;;;5516387;26;20046;-74
2024/04/13 10:19:35;;;;;;;1.80;1.30;;;21.90;68.60;;;;;;5525600;26;20002;-75
2024/04/13 10:22:04;;;;;;;6.93;1.50;;;22.00;68.40;;;;;;5489933;26;20073;-75
2024/04/13 10:24:34;;;;;;;6.50;1.88;;;22.00;68.40;;;;;;5514687;26;20006;-75
2024/04/13 10:27:11;;;;;;;4.05;1.92;;;22.00;68.40;;;;;;5509397;26;20533;-75
2024/04/13 10:29:40;;;;;;;3.90;1.70;;;22.00;68.30;;;;;;5471685;26;22020;-75
2024/04/13 10:32:09;;;;;;;2.55;1.48;;;21.90;68.40;;;;;;5482275;26;19997;-76
2024/04/13 10:34:35;;;;;;;4.30;2.28;;;21.90;68.70;;;;;;5495863;26;20009;-75
2024/04/13 10:37:01;;;;;;;7.97;2.33;;;21.90;68.80;;;;;;5474094;26;20083;-76
2024/04/13 10:39:26;;;;;;;6.77;2.13;;;22.00;68.50;;;;;;5478452;26;20033;-76
2024/04/13 10:41:52;;;;;;;6.37;2.37;;;22.00;68.40;;;;;;5476338;26;20013;-76
2024/04/13 10:44:28;;;;;;;17.30;4.07;;;22.10;68.40;;;;;;5477762;26;20001;-75
2024/04/13 10:46:54;;;;;;;11.15;3.13;;;22.00;68.50;;;;;;5494841;26;20009;-76
2024/04/13 10:49:21;;;;;;;7.83;2.67;;;22.10;68.40;;;;;;5483842;26;20081;-75
2024/04/13 10:51:46;;;;;;;12.35;3.47;;;22.10;68.30;;;;;;5495389;25;20016;-77
2024/04/13 10:54:15;;;;;;;11.63;3.50;;;22.10;68.30;;;;;;5482152;26;19997;-75
2024/04/13 10:56:44;;;;;;;14.77;4.25;;;22.00;69.00;;;;;;5487192;26;20218;-76
2024/04/13 10:59:10;;;;;;;15.77;4.15;;;22.00;69.10;;;;;;5489251;26;20002;-76
2024/04/13 11:01:43;;;;;;;17.87;5.33;;;22.20;68.60;;;;;;5475458;26;20473;-76
2024/04/13 11:04:11;;;;;;;25.15;6.18;;;22.40;67.80;;;;;;5492980;26;20005;-77
2024/04/13 11:06:39;;;;;;;17.90;5.88;;;22.40;67.60;;;;;;5471507;26;20008;-76
2024/04/13 11:09:05;;;;;;;24.52;6.00;;;22.50;67.70;;;;;;5476219;26;20012;-77
2024/04/13 11:11:31;;;;;;;;;;;22.50;67.60;;;;;;5477140;26;20788;-77
2024/04/13 11:13:57;;;;;;;21.73;5.88;;;22.40;68.10;;;;;;5496308;26;19932;-78
2024/04/13 11:16:22;;;;;;;26.20;7.03;;;22.60;67.70;;;;;;5495991;26;20013;-76
2024/04/13 11:18:48;;;;;;;21.57;6.10;;;22.70;67.50;;;;;;5523383;26;20016;-77
2024/04/13 11:21:20;;;;;;;25.58;5.50;;;22.50;68.10;;;;;;5522739;26;20021;-77
2024/04/13 11:23:47;;;;;;;28.02;6.93;;;22.30;68.90;;;;;;5513016;26;20012;-77
2024/04/13 11:26:14;;;;;;;26.02;6.85;;;22.30;69.10;;;;;;5463115;26;20001;-77
2024/04/13 11:28:41;;;;;;;26.48;7.00;;;22.30;69.20;;;;;;5485383;26;20045;-77
2024/04/13 11:31:08;;;;;;;24.20;5.60;;;22.20;69.80;;;;;;5458658;26;20001;-77
2024/04/13 11:33:36;;;;;;;36.50;7.68;;;22.20;70.10;;;;;;5484363;26;19997;-77
2024/04/13 11:36:02;;;;;;;19.77;6.03;;;22.10;70.20;;;;;;5483843;26;20008;-77
2024/04/13 11:38:37;;;;;;;22.83;6.93;;;22.10;70.60;;;;;;5480302;26;20002;-77
2024/04/13 11:41:04;;;;;;;16.83;6.10;;;22.00;70.70;;;;;;5513768;26;19998;-77
2024/04/13 11:43:30;;;;;;;27.67;7.05;;;22.00;70.80;;;;;;5513335;26;20008;-76
2024/04/13 11:45:56;;;;;;;17.58;4.82;;;22.10;70.60;;;;;;5507161;26;20223;-77
2024/04/13 11:48:21;;;;;;;18.30;5.83;;;22.00;70.90;;;;;;5501318;26;20497;-76
2024/04/13 11:50:48;;;;;;;19.77;6.50;;;22.10;70.80;;;;;;5514228;26;20013;-76
2024/04/13 11:53:14;;;;;;;20.92;5.78;;;22.10;71.00;;;;;;5479312;26;20342;-77
2024/04/13 11:55:39;;;;;;;21.40;6.17;;;22.10;71.00;;;;;;5480623;26;20005;-78
2024/04/13 11:58:06;;;;;;;21.27;5.73;;;22.10;70.80;;;;;;5512729;26;20073;-77
2024/04/13 12:00:31;;;;;;;16.83;5.80;;;22.20;70.90;;;;;;5480164;26;20001;-76
2024/04/13 12:02:58;;;;;;;23.10;5.70;;;22.20;70.80;;;;;;5512428;26;20857;-77
2024/04/13 12:05:25;;;;;;;17.65;5.07;;;22.20;70.80;;;;;;5480181;26;20129;-77
2024/04/13 12:07:51;;;;;;;26.77;7.13;;;22.20;71.00;;;;;;5480152;26;20002;-77
2024/04/13 12:10:16;;;;;;;20.37;6.27;;;22.20;71.00;;;;;;5481229;26;20009;-76
2024/04/13 12:12:43;;;;;;;19.67;5.60;;;22.20;71.20;;;;;;5478010;26;19993;-77
2024/04/13 12:15:08;;;;;;;18.00;5.45;;;22.20;71.00;;;;;;5513680;26;19994;-77
2024/04/13 12:17:34;;;;;;;16.20;5.27;;;22.20;71.30;;;;;;5484657;26;19998;-77
2024/04/13 12:20:01;;;;;;;20.02;6.30;;;22.20;71.30;;;;;;5523935;26;20005;-77
2024/04/13 12:22:28;;;;;;;17.52;5.35;;;22.20;71.30;;;;;;5519583;26;19998;-76
2024/04/13 12:24:55;;;;;;;20.48;5.78;;;22.20;71.40;;;;;;5481401;26;20921;-77
2024/04/13 12:27:22;;;;;;;19.77;5.50;;;22.20;71.60;;;;;;5486010;26;20001;-77
2024/04/13 12:29:50;;;;;;;16.08;6.22;;;22.20;71.40;;;;;;5488046;26;20009;-77
2024/04/13 12:32:18;;;;;;;19.42;5.63;;;22.20;71.60;;;;;;5490078;26;19993;-76
2024/04/13 12:34:47;;;;;;;15.35;4.95;;;22.20;71.70;;;;;;5487636;26;20033;-77
2024/04/13 12:37:15;;;;;;;12.13;4.43;;;22.20;71.70;;;;;;5493748;26;20000;-76
2024/04/13 12:39:44;;;;;;;11.38;4.68;;;22.20;71.80;;;;;;5501503;25;20017;-77
2024/04/13 12:42:10;;;;;;;12.70;5.03;;;22.20;71.80;;;;;;5480218;26;20032;-77
2024/04/13 12:44:36;;;;;;;11.70;4.73;;;22.30;71.80;;;;;;5474293;26;20033;-77
2024/04/13 12:47:02;;;;;;;13.93;5.03;;;22.30;71.60;;;;;;5475604;26;20006;-76